Time;durP1;ratioP1;P1;durP2;ratioP2;P2;SDS_P1;SDS_P2;PMS_P1;PMS_P2;Temp;Humidity;BMP_temperature;BMP_pressure;BME280_temperature;BME280_humidity;BME280_pressure;Samples;Min_cycle;Max_cycle;Signal;HPM_P1;HPM_P2
2021/09/13 00:04:35;;;;;;;3.55;2.80;;;21.00;64.10;;;;;;20737435;28;20030;-56
2021/09/13 00:14:37;;;;;;;6.53;2.95;;;21.00;64.30;;;;;;20744030;28;20040;-58
2021/09/13 00:24:37;;;;;;;4.55;2.95;;;21.00;64.30;;;;;;20753429;28;20501;-50
2021/09/13 00:34:38;;;;;;;3.77;3.33;;;21.00;64.30;;;;;;20752047;28;20058;-55
2021/09/13 00:44:38;;;;;;;8.70;2.95;;;21.00;64.20;;;;;;20750869;28;20034;-53
2021/09/13 00:54:39;;;;;;;4.93;2.92;;;21.00;64.10;;;;;;20750280;28;20041;-53
2021/09/13 01:04:40;;;;;;;5.18;3.00;;;21.00;64.20;;;;;;20749253;28;20632;-56
2021/09/13 01:14:41;;;;;;;5.70;3.27;;;20.90;64.10;;;;;;20759616;28;20033;-52
2021/09/13 01:24:42;;;;;;;4.85;2.95;;;20.90;63.90;;;;;;20748123;28;20563;-50
2021/09/13 01:34:43;;;;;;;5.22;3.03;;;20.90;63.90;;;;;;20748332;28;20128;-54
2021/09/13 01:44:43;;;;;;;3.25;2.53;;;20.90;64.00;;;;;;20747960;28;20037;-56
2021/09/13 01:54:44;;;;;;;3.10;2.40;;;20.90;63.90;;;;;;20746735;28;20025;-58
2021/09/13 02:04:44;;;;;;;3.28;2.38;;;20.80;63.80;;;;;;20745572;28;20026;-57
2021/09/13 02:14:45;;;;;;;5.55;3.22;;;20.80;63.80;;;;;;20745147;28;20391;-56
2021/09/13 02:24:45;;;;;;;3.03;2.23;;;20.80;63.90;;;;;;20744787;28;20502;-59
2021/09/13 02:34:46;;;;;;;5.88;2.60;;;20.80;63.80;;;;;;20723809;28;20464;-59
2021/09/13 02:44:46;;;;;;;4.95;2.72;;;20.80;63.90;;;;;;20742351;28;20072;-59
2021/09/13 02:54:47;;;;;;;5.15;2.58;;;20.80;63.50;;;;;;20741026;28;20058;-59
2021/09/13 03:04:47;;;;;;;4.53;2.35;;;20.70;63.40;;;;;;20740178;28;20080;-57
2021/09/13 03:14:48;;;;;;;4.60;2.38;;;20.80;63.40;;;;;;20739771;28;20469;-58
2021/09/13 03:24:48;;;;;;;3.78;2.15;;;20.80;63.50;;;;;;20738969;28;20153;-58
2021/09/13 03:34:49;;;;;;;3.05;1.60;;;20.70;63.40;;;;;;20738536;28;20168;-58
2021/09/13 03:44:49;;;;;;;5.43;2.53;;;20.70;63.30;;;;;;20737645;28;20100;-58
2021/09/13 03:54:50;;;;;;;3.17;2.15;;;20.70;63.30;;;;;;20736619;28;20036;-55
2021/09/13 04:04:53;;;;;;;3.58;1.80;;;20.70;63.10;;;;;;20736987;28;20102;-57
2021/09/13 04:14:53;;;;;;;3.00;1.65;;;20.70;63.10;;;;;;20736796;28;20441;-58
2021/09/13 04:24:54;;;;;;;3.70;1.88;;;20.70;63.10;;;;;;20736022;28;20030;-56
2021/09/13 04:34:54;;;;;;;3.78;1.45;;;20.70;63.20;;;;;;20735250;28;20392;-57
2021/09/13 04:44:55;;;;;;;2.70;1.90;;;20.70;63.20;;;;;;20734514;28;20037;-58
2021/09/13 04:54:55;;;;;;;2.20;1.30;;;20.60;63.30;;;;;;20733119;28;20018;-52
2021/09/13 05:04:56;;;;;;;3.80;1.73;;;20.60;63.10;;;;;;20743297;28;20060;-57
2021/09/13 05:14:56;;;;;;;4.18;1.30;;;20.60;63.10;;;;;;20746977;28;20477;-56
2021/09/13 05:24:57;;;;;;;3.53;1.70;;;20.50;63.10;;;;;;20747614;28;20030;-59
2021/09/13 05:34:57;;;;;;;6.60;2.25;;;20.50;63.30;;;;;;20746680;28;20030;-59
2021/09/13 05:44:58;;;;;;;32.65;5.95;;;20.60;63.40;;;;;;20759844;28;20518;-58
2021/09/13 05:54:59;;;;;;;19.33;5.05;;;20.60;63.60;;;;;;20746437;28;20034;-55
2021/09/13 06:05:00;;;;;;;15.53;4.90;;;20.50;63.30;;;;;;20745517;28;20060;-58
2021/09/13 06:15:00;;;;;;;22.40;4.38;;;20.50;63.20;;;;;;20743332;28;20562;-55
2021/09/13 06:25:01;;;;;;;10.93;3.45;;;20.50;63.70;;;;;;20728157;28;20061;-58
2021/09/13 06:35:03;;;;;;;7.50;2.92;;;20.50;63.40;;;;;;20742789;28;20029;-57
2021/09/13 06:45:12;;;;;;;8.20;2.97;;;20.50;63.80;;;;;;20741050;28;20030;-59
2021/09/13 06:55:13;;;;;;;6.88;2.67;;;20.50;63.70;;;;;;20738354;28;20072;-58
2021/09/13 07:05:14;;;;;;;5.13;2.57;;;20.60;64.10;;;;;;20737834;28;20018;-58
2021/09/13 07:15:15;;;;;;;4.55;2.38;;;20.60;64.20;;;;;;20737435;28;20448;-59
2021/09/13 07:25:16;;;;;;;8.38;3.13;;;20.70;64.30;;;;;;20736564;28;20404;-58
2021/09/13 07:35:17;;;;;;;4.07;2.15;;;20.70;64.30;;;;;;20736182;28;20036;-59
2021/09/13 07:45:17;;;;;;;7.07;2.72;;;20.80;64.20;;;;;;20735718;28;20145;-59
2021/09/13 07:55:19;;;;;;;6.35;2.10;;;20.80;64.10;;;;;;20736849;28;20058;-59
2021/09/13 08:05:20;;;;;;;3.03;2.28;;;20.80;63.90;;;;;;20736421;28;20041;-59
2021/09/13 08:15:23;;;;;;;5.80;2.08;;;20.90;64.20;;;;;;20735003;28;20091;-59
2021/09/13 08:25:23;;;;;;;8.55;2.85;;;20.80;64.30;;;;;;20734456;28;20038;-59
2021/09/13 08:35:24;;;;;;;4.67;2.13;;;20.90;64.30;;;;;;20738636;28;20519;-60
2021/09/13 08:45:41;;;;;;;5.13;1.70;;;20.90;64.10;;;;;;20748198;28;20030;-59
2021/09/13 08:55:41;;;;;;;6.63;2.45;;;20.90;63.70;;;;;;20747062;28;20501;-60
2021/09/13 09:05:47;;;;;;;3.75;2.33;;;20.90;63.80;;;;;;20747467;28;20099;-59
2021/09/13 09:15:53;;;;;;;5.30;2.53;;;21.00;63.50;;;;;;20747734;28;20385;-58
2021/09/13 09:26:11;;;;;;;6.03;2.42;;;20.90;63.60;;;;;;20742709;28;20026;-58
2021/09/13 09:36:12;;;;;;;5.47;3.03;;;21.00;63.60;;;;;;20744632;28;20037;-59
2021/09/13 09:46:13;;;;;;;5.30;3.42;;;21.00;63.60;;;;;;20743979;28;20025;-59
2021/09/13 09:56:14;;;;;;;7.45;3.72;;;21.00;63.50;;;;;;20751888;28;20025;-58
2021/09/13 10:06:18;;;;;;;10.60;4.88;;;21.00;63.60;;;;;;20735630;28;20037;-59
2021/09/13 10:16:19;;;;;;;12.60;6.13;;;21.10;63.90;;;;;;20746184;28;20029;-59
2021/09/13 10:26:20;;;;;;;7.47;5.80;;;21.10;63.30;;;;;;20740706;28;20029;-59
2021/09/13 10:36:21;;;;;;;9.65;5.15;;;21.10;63.20;;;;;;20739128;28;20468;-59
2021/09/13 10:47:00;;;;;;;10.52;5.22;;;21.10;63.10;;;;;;20739638;28;20477;-59
2021/09/13 10:57:05;;;;;;;8.30;4.60;;;21.10;63.10;;;;;;20737423;28;20362;-59
2021/09/13 11:07:06;;;;;;;6.07;3.80;;;21.10;63.10;;;;;;20738749;28;20405;-59
2021/09/13 11:17:07;;;;;;;8.05;4.05;;;21.10;63.00;;;;;;20737705;28;20088;-60
2021/09/13 11:27:10;;;;;;;5.50;3.70;;;21.10;62.90;;;;;;20737072;28;20378;-60
2021/09/13 11:37:19;;;;;;;5.10;3.45;;;21.10;62.70;;;;;;20736530;28;20034;-60
2021/09/13 11:47:25;;;;;;;7.30;3.47;;;21.10;62.70;;;;;;20736481;28;20025;-59
2021/09/13 11:57:26;;;;;;;7.60;3.28;;;21.10;62.60;;;;;;20735623;28;20030;-59
2021/09/13 12:07:26;;;;;;;7.28;3.75;;;21.20;62.80;;;;;;20736324;28;20033;-57
2021/09/13 12:17:39;;;;;;;4.90;3.10;;;21.20;62.60;;;;;;20752381;28;20030;-57
2021/09/13 12:27:43;;;;;;;6.25;3.88;;;21.20;62.90;;;;;;20758028;28;20609;-58
2021/09/13 12:37:43;;;;;;;5.00;2.88;;;21.20;62.70;;;;;;20750388;28;20033;-58
2021/09/13 12:47:53;;;;;;;6.45;3.47;;;21.20;62.50;;;;;;20748878;28;20516;-54
2021/09/13 12:57:53;;;;;;;5.72;3.97;;;21.30;62.40;;;;;;20750075;28;20434;-54
2021/09/13 13:07:54;;;;;;;8.18;3.30;;;21.30;62.00;;;;;;20749286;28;20037;-57
2021/09/13 13:17:55;;;;;;;3.50;2.90;;;21.30;62.20;;;;;;20749763;28;20104;-55
2021/09/13 13:27:55;;;;;;;6.45;3.17;;;21.20;62.00;;;;;;20749323;28;20508;-58
2021/09/13 13:37:56;;;;;;;5.55;3.72;;;21.20;61.70;;;;;;20749987;28;20038;-55
2021/09/13 13:47:57;;;;;;;17.92;3.80;;;21.20;61.70;;;;;;20749317;28;20034;-58
2021/09/13 13:57:58;;;;;;;9.63;3.13;;;21.20;62.50;;;;;;20746808;28;20026;-60
2021/09/13 14:08:02;;;;;;;3.65;2.30;;;21.10;60.50;;;;;;20743953;28;20076;-58
2021/09/13 14:18:03;;;;;;;6.78;3.53;;;21.00;59.80;;;;;;20744989;28;20038;-60
2021/09/13 14:28:03;;;;;;;12.93;2.70;;;21.00;60.20;;;;;;20740984;28;20036;-58
2021/09/13 14:38:04;;;;;;;5.83;2.77;;;21.00;60.60;;;;;;20741663;28;20033;-56
2021/09/13 14:48:05;;;;;;;5.60;1.92;;;21.00;59.80;;;;;;20745041;28;20483;-58
2021/09/13 14:58:06;;;;;;;6.27;2.10;;;20.90;59.10;;;;;;20750771;28;20017;-55
2021/09/13 15:08:07;;;;;;;3.70;1.58;;;20.90;60.30;;;;;;20740128;28;20469;-54
2021/09/13 15:18:08;;;;;;;4.82;2.97;;;20.90;59.30;;;;;;20741830;28;20156;-55
2021/09/13 15:28:09;;;;;;;3.30;1.93;;;20.90;61.00;;;;;;20734647;28;20041;-56
2021/09/13 15:38:12;;;;;;;3.17;1.73;;;20.90;59.40;;;;;;20740333;28;20460;-55
2021/09/13 15:48:13;;;;;;;3.53;1.98;;;20.90;60.30;;;;;;20737714;28;20044;-55
2021/09/13 15:58:14;;;;;;;4.95;2.92;;;20.90;60.50;;;;;;20738309;28;20126;-57
2021/09/13 16:08:15;;;;;;;7.60;2.85;;;20.80;60.80;;;;;;20737205;28;20042;-58
2021/09/13 16:18:16;;;;;;;4.78;2.30;;;20.90;61.20;;;;;;20735552;28;20125;-56
2021/09/13 16:28:17;;;;;;;7.75;2.45;;;20.80;61.70;;;;;;20736101;28;20030;-59
2021/09/13 16:38:18;;;;;;;4.45;2.20;;;20.80;61.70;;;;;;20735323;28;20037;-57
2021/09/13 16:48:18;;;;;;;4.32;1.95;;;20.80;61.80;;;;;;20734281;28;20034;-58
2021/09/13 16:58:19;;;;;;;4.70;2.13;;;20.90;62.10;;;;;;20743523;28;20467;-56
2021/09/13 17:08:20;;;;;;;5.60;2.67;;;20.80;61.90;;;;;;20747427;28;20029;-55
2021/09/13 17:18:20;;;;;;;3.92;2.28;;;20.80;61.60;;;;;;20747710;28;20440;-58
2021/09/13 17:28:21;;;;;;;4.00;2.30;;;20.80;61.70;;;;;;20747699;28;20034;-58
2021/09/13 17:38:21;;;;;;;4.65;2.03;;;20.80;62.10;;;;;;20747953;28;20030;-55
2021/09/13 17:48:22;;;;;;;4.60;2.65;;;20.80;62.40;;;;;;20747400;28;20648;-59
2021/09/13 17:58:22;;;;;;;6.28;2.22;;;20.80;62.90;;;;;;20745690;28;20058;-58
2021/09/13 18:08:23;;;;;;;3.50;2.15;;;20.70;63.00;;;;;;20742984;28;20052;-59
2021/09/13 18:18:24;;;;;;;9.30;2.75;;;20.70;63.10;;;;;;20738660;28;20447;-57
2021/09/13 18:28:25;;;;;;;7.93;2.60;;;20.80;63.40;;;;;;20739434;28;20030;-60
2021/09/13 18:38:26;;;;;;;5.30;2.00;;;20.80;63.80;;;;;;20741796;28;20041;-57
2021/09/13 18:48:26;;;;;;;5.90;2.60;;;20.80;63.70;;;;;;20740206;28;20048;-57
2021/09/13 18:58:27;;;;;;;7.47;2.17;;;20.80;63.70;;;;;;20740530;28;20153;-60
2021/09/13 19:08:28;;;;;;;9.85;2.92;;;20.90;63.50;;;;;;20746971;28;20032;-60
2021/09/13 19:18:28;;;;;;;8.40;3.20;;;20.90;63.30;;;;;;20735653;28;20147;-60
2021/09/13 19:28:29;;;;;;;9.35;3.15;;;20.90;63.60;;;;;;20740117;28;20041;-58
2021/09/13 19:38:30;;;;;;;5.45;2.70;;;20.90;64.10;;;;;;20794075;28;20077;-57
2021/09/13 19:48:30;;;;;;;4.32;2.20;;;20.90;64.00;;;;;;20717319;28;20062;-60
2021/09/13 19:58:31;;;;;;;5.97;2.92;;;20.80;63.80;;;;;;20651973;28;20018;-60
2021/09/13 20:08:31;;;;;;;9.75;3.15;;;20.80;64.20;;;;;;20681059;28;20122;-59
2021/09/13 20:18:32;;;;;;;6.35;3.45;;;20.80;64.20;;;;;;20668297;28;20113;-60
2021/09/13 20:28:33;;;;;;;6.95;2.58;;;20.80;64.10;;;;;;20651379;28;20557;-60
2021/09/13 20:38:33;;;;;;;6.75;2.88;;;20.70;64.10;;;;;;20701710;28;20449;-60
2021/09/13 20:48:34;;;;;;;6.13;2.95;;;20.70;64.20;;;;;;20746362;28;20696;-60
2021/09/13 20:58:35;;;;;;;10.13;3.22;;;20.70;64.30;;;;;;20610478;28;64102;-60
2021/09/13 21:08:36;;;;;;;7.13;3.38;;;20.60;64.30;;;;;;20691507;23;20041;-63
2021/09/13 21:18:36;;;;;;;4.90;3.30;;;20.60;64.30;;;;;;20672004;28;20061;-63
2021/09/13 21:28:37;;;;;;;8.10;3.17;;;20.60;64.70;;;;;;20736808;28;20042;-63
2021/09/13 21:38:37;;;;;;;6.25;2.92;;;20.60;64.00;;;;;;20734561;28;20022;-64
2021/09/13 21:48:38;;;;;;;5.25;2.67;;;20.50;64.00;;;;;;20676230;28;20029;-65
2021/09/13 21:58:38;;;;;;;7.63;3.63;;;20.50;63.80;;;;;;20755220;28;20026;-64
2021/09/13 22:08:39;;;;;;;4.45;3.25;;;20.50;63.50;;;;;;20753848;28;20483;-64
2021/09/13 22:18:39;;;;;;;8.25;3.20;;;20.40;63.40;;;;;;20735584;28;20052;-64
2021/09/13 22:28:40;;;;;;;5.43;3.17;;;20.40;63.40;;;;;;20722654;28;20033;-64
2021/09/13 22:38:41;;;;;;;4.05;2.53;;;20.40;63.40;;;;;;20739809;28;20046;-64
2021/09/13 22:48:41;;;;;;;3.50;2.35;;;20.40;63.40;;;;;;20737718;28;20465;-64
2021/09/13 22:58:42;;;;;;;5.07;3.05;;;20.40;63.30;;;;;;20739904;28;20105;-64
2021/09/13 23:08:42;;;;;;;4.47;2.35;;;20.30;63.30;;;;;;20740232;28;20029;-64
2021/09/13 23:18:43;;;;;;;5.25;2.60;;;20.30;63.30;;;;;;20740081;28;20029;-64
2021/09/13 23:28:44;;;;;;;4.32;2.47;;;20.30;63.00;;;;;;20739499;28;20040;-64
2021/09/13 23:38:44;;;;;;;6.43;2.97;;;20.30;63.10;;;;;;20722295;28;20042;-64
2021/09/13 23:48:45;;;;;;;4.15;2.88;;;20.30;62.80;;;;;;20738249;28;20033;-63
2021/09/13 23:58:45;;;;;;;4.93;2.83;;;20.20;62.90;;;;;;20737151;28;20034;-63
